createdAt,value
2022-10-22T00:02:56.249Z,7.91
2022-10-22T00:05:58.309Z,7.82
2022-10-22T00:09:00.205Z,7.79
2022-10-22T00:12:03.256Z,7.88
2022-10-22T00:15:06.373Z,7.91
2022-10-22T00:18:08.524Z,7.95
2022-10-22T00:21:13.257Z,7.99
2022-10-22T00:24:15.723Z,7.98
2022-10-22T00:27:17.538Z,7.90
2022-10-22T00:30:19.637Z,7.93
2022-10-22T00:33:22.724Z,8.01
2022-10-22T00:36:24.680Z,8.05
2022-10-22T00:39:27.813Z,8.00
2022-10-22T00:42:30.597Z,8.01
2022-10-22T00:45:32.392Z,8.14
2022-10-22T00:48:34.534Z,8.23
2022-10-22T00:51:36.669Z,8.21
2022-10-22T00:54:38.961Z,8.10
2022-10-22T00:57:41.193Z,8.09
2022-10-22T01:00:45.164Z,8.18
2022-10-22T01:03:48.469Z,8.25
2022-10-22T01:06:50.254Z,8.31
2022-10-22T01:10:13.828Z,8.23
2022-10-22T01:13:41.303Z,8.24
2022-10-22T01:17:13.971Z,8.21
2022-10-22T01:20:31.617Z,8.16
2022-10-22T01:24:05.356Z,8.04
2022-10-22T01:27:13.434Z,8.08
2022-10-22T01:30:16.231Z,8.14
2022-10-22T01:33:20.132Z,8.04
2022-10-22T01:36:22.564Z,8.05
2022-10-22T01:39:26.073Z,8.03
2022-10-22T01:42:28.649Z,8.06
2022-10-22T01:45:33.859Z,7.97
2022-10-22T01:48:47.747Z,7.90
2022-10-22T01:51:52.827Z,7.88
2022-10-22T01:55:16.742Z,7.83
2022-10-22T01:58:58.232Z,7.80
2022-10-22T02:02:05.665Z,7.74
2022-10-22T02:05:07.863Z,7.73
2022-10-22T02:08:12.715Z,7.75
2022-10-22T02:11:16.331Z,7.73
2022-10-22T02:14:19.606Z,7.77
2022-10-22T02:17:24.004Z,7.74
2022-10-22T02:20:32.141Z,7.64
2022-10-22T02:23:34.190Z,7.66
2022-10-22T02:27:01.596Z,7.65
2022-10-22T02:30:09.281Z,7.68
2022-10-22T02:33:13.036Z,7.65
2022-10-22T02:36:17.707Z,7.62
2022-10-22T02:39:20.850Z,7.63
2022-10-22T02:42:26.359Z,7.70
2022-10-22T02:45:28.103Z,7.68
2022-10-22T02:48:29.916Z,7.62
2022-10-22T02:51:32.268Z,7.63
2022-10-22T02:54:34.232Z,7.64
2022-10-22T02:57:36.140Z,7.66
2022-10-22T03:00:38.621Z,7.59
2022-10-22T03:03:40.418Z,7.64
2022-10-22T03:06:44.734Z,7.58
2022-10-22T03:09:46.787Z,7.55
2022-10-22T03:12:48.711Z,7.65
2022-10-22T03:15:51.164Z,7.64
2022-10-22T03:18:52.878Z,7.59
2022-10-22T03:22:01.606Z,7.54
2022-10-22T03:25:08.277Z,7.51
2022-10-22T03:28:11.243Z,7.44
2022-10-22T03:31:13.538Z,7.42
2022-10-22T03:34:15.448Z,7.40
2022-10-22T03:37:17.451Z,7.39
2022-10-22T03:40:20.114Z,7.39
2022-10-22T03:43:21.811Z,7.31
2022-10-22T03:46:23.738Z,7.31
2022-10-22T03:49:26.437Z,7.23
2022-10-22T03:52:28.281Z,7.25
2022-10-22T03:55:30.894Z,7.26
2022-10-22T03:58:32.771Z,7.18
2022-10-22T04:01:34.622Z,7.19
2022-10-22T04:04:36.996Z,7.28
2022-10-22T04:07:38.977Z,7.36
2022-10-22T04:10:41.773Z,7.33
2022-10-22T04:13:44.148Z,7.25
2022-10-22T04:16:45.860Z,7.22
2022-10-22T04:19:50.185Z,7.13
2022-10-22T04:22:51.967Z,7.11
2022-10-22T04:26:06.512Z,7.05
2022-10-22T04:29:11.917Z,6.99
2022-10-22T04:32:17.788Z,7.06
2022-10-22T04:35:19.620Z,7.02
2022-10-22T04:38:21.368Z,6.96
2022-10-22T04:41:26.032Z,6.87
2022-10-22T04:44:27.833Z,6.88
2022-10-22T04:47:30.206Z,6.83
2022-10-22T04:50:32.167Z,6.80
2022-10-22T04:53:35.871Z,6.72
2022-10-22T04:56:38.536Z,6.88
2022-10-22T04:59:40.875Z,6.87
2022-10-22T05:02:45.117Z,6.93
2022-10-22T05:05:47.144Z,7.00
2022-10-22T05:08:53.552Z,7.01
2022-10-22T05:11:55.984Z,7.01
2022-10-22T05:14:59.200Z,7.03
2022-10-22T05:18:02.016Z,7.18
2022-10-22T05:21:15.884Z,7.22
2022-10-22T05:24:19.071Z,7.27
2022-10-22T05:27:21.361Z,7.26
2022-10-22T05:30:23.191Z,7.33
2022-10-22T05:33:26.155Z,7.44
2022-10-22T05:36:28.415Z,7.50
2022-10-22T05:39:30.476Z,7.66
2022-10-22T05:42:33.184Z,7.75
2022-10-22T05:45:42.642Z,7.79
2022-10-22T05:48:44.848Z,7.87
2022-10-22T05:51:47.605Z,7.86
2022-10-22T05:54:50.078Z,7.86
2022-10-22T05:57:51.954Z,7.84
2022-10-22T06:00:54.179Z,7.89
2022-10-22T06:04:05.295Z,7.82
2022-10-22T06:07:09.960Z,7.95
2022-10-22T06:10:16.061Z,7.94
2022-10-22T06:13:17.948Z,8.07
2022-10-22T06:16:20.362Z,8.20
2022-10-22T06:19:23.873Z,8.42
2022-10-22T06:22:26.983Z,8.68
2022-10-22T06:25:29.737Z,8.88
2022-10-22T06:28:32.066Z,9.06
2022-10-22T06:31:36.994Z,9.34
2022-10-22T06:34:39.493Z,9.64
2022-10-22T06:37:42.001Z,9.65
2022-10-22T06:40:45.777Z,9.74
2022-10-22T06:43:48.748Z,9.80
2022-10-22T06:46:54.567Z,9.78
2022-10-22T06:49:57.256Z,10.02
2022-10-22T06:52:59.270Z,10.43
2022-10-22T06:56:09.249Z,10.66
2022-10-22T06:59:11.151Z,10.93
2022-10-22T07:02:13.900Z,10.95
2022-10-22T07:05:17.097Z,10.89
2022-10-22T07:08:19.899Z,10.86
2022-10-22T07:11:27.226Z,10.85
2022-10-22T07:14:32.667Z,10.86
2022-10-22T07:17:35.187Z,10.88
2022-10-22T07:20:37.573Z,10.98
2022-10-22T07:23:39.817Z,11.13
2022-10-22T07:26:42.048Z,11.64
2022-10-22T07:29:44.259Z,11.81
2022-10-22T07:32:47.292Z,11.72
2022-10-22T07:35:50.153Z,11.68
2022-10-22T07:39:00.564Z,11.76
2022-10-22T07:42:03.190Z,11.81
2022-10-22T07:45:06.241Z,11.63
2022-10-22T07:48:08.698Z,11.19
2022-10-22T07:51:10.667Z,11.05
2022-10-22T07:54:13.178Z,10.92
2022-10-22T07:57:15.275Z,10.85
2022-10-22T08:00:20.578Z,10.80
2022-10-22T08:03:25.258Z,10.75
2022-10-22T08:06:28.003Z,10.88
2022-10-22T08:09:29.960Z,11.19
2022-10-22T08:12:31.944Z,11.39
2022-10-22T08:15:39.178Z,11.68
2022-10-22T08:18:44.443Z,11.75
2022-10-22T08:21:46.965Z,11.88
2022-10-22T08:24:53.726Z,11.79
2022-10-22T08:27:56.053Z,11.72
2022-10-22T08:30:59.529Z,11.84
2022-10-22T08:34:01.738Z,11.83
2022-10-22T08:37:03.811Z,12.22
2022-10-22T08:40:06.681Z,12.54
2022-10-22T08:43:14.410Z,13.11
2022-10-22T08:46:37.975Z,13.15
2022-10-22T08:49:42.537Z,13.34
2022-10-22T08:52:47.216Z,13.53
2022-10-22T08:55:53.506Z,13.50
2022-10-22T08:59:03.908Z,13.71
2022-10-22T09:02:38.947Z,13.73
2022-10-22T09:05:57.001Z,13.75
2022-10-22T09:09:00.516Z,13.88
2022-10-22T09:12:04.730Z,13.96
2022-10-22T09:15:09.369Z,13.64
2022-10-22T09:18:33.120Z,13.58
2022-10-22T09:21:53.955Z,13.29
2022-10-22T09:25:14.972Z,12.91
2022-10-22T09:28:18.118Z,12.41
2022-10-22T09:31:21.198Z,12.33
2022-10-22T09:34:23.339Z,12.28
2022-10-22T09:37:28.706Z,12.19
2022-10-22T09:40:31.724Z,12.18
2022-10-22T09:43:35.294Z,12.00
2022-10-22T09:46:44.758Z,11.85
2022-10-22T09:49:46.808Z,11.72
2022-10-22T09:53:01.978Z,11.65
2022-10-22T09:56:10.083Z,11.65
2022-10-22T09:59:17.190Z,11.63
2022-10-22T10:02:37.531Z,11.48
2022-10-22T10:05:41.657Z,11.49
2022-10-22T10:08:43.982Z,11.63
2022-10-22T10:11:50.140Z,11.55
2022-10-22T10:15:01.425Z,11.53
2022-10-22T10:18:18.488Z,11.39
2022-10-22T10:21:36.309Z,11.28
2022-10-22T10:25:10.913Z,11.21
2022-10-22T10:28:31.394Z,11.17
2022-10-22T10:31:42.209Z,11.11
2022-10-22T10:34:51.028Z,11.05
2022-10-22T10:38:33.929Z,11.04
2022-10-22T10:41:48.385Z,10.78
2022-10-22T10:45:33.060Z,10.75
2022-10-22T10:48:57.115Z,10.67
2022-10-22T10:52:21.467Z,10.78
2022-10-22T10:55:33.577Z,10.70
2022-10-22T10:58:45.461Z,10.71
2022-10-22T11:01:54.251Z,11.04
2022-10-22T11:05:12.176Z,11.15
2022-10-22T11:08:29.269Z,11.21
2022-10-22T11:11:51.234Z,11.45
2022-10-22T11:15:04.353Z,11.37
2022-10-22T11:18:15.164Z,11.18
2022-10-22T11:21:23.001Z,10.92
2022-10-22T11:24:29.301Z,11.03
2022-10-22T11:27:43.281Z,10.95
2022-10-22T11:30:49.713Z,10.96
2022-10-22T11:34:04.913Z,10.77
2022-10-22T11:37:14.022Z,10.65
2022-10-22T11:40:21.768Z,10.55
2022-10-22T11:43:35.848Z,10.30
2022-10-22T11:46:47.647Z,10.38
2022-10-22T11:49:59.340Z,10.43
2022-10-22T11:53:13.860Z,10.21
2022-10-22T11:56:25.633Z,10.28
2022-10-22T11:59:49.959Z,10.09
2022-10-22T12:03:03.841Z,10.18
2022-10-22T12:06:12.879Z,10.09
2022-10-22T12:09:14.961Z,10.16
2022-10-22T12:12:21.243Z,10.21
2022-10-22T12:15:27.371Z,10.28
2022-10-22T12:18:41.530Z,10.36
2022-10-22T12:21:49.156Z,10.34
2022-10-22T12:24:58.296Z,10.27
2022-10-22T12:28:01.281Z,10.35
2022-10-22T12:31:03.476Z,10.37
2022-10-22T12:34:05.939Z,10.53
2022-10-22T12:37:08.294Z,10.47
2022-10-22T12:40:17.543Z,10.60
2022-10-22T12:43:25.620Z,10.71
2022-10-22T12:46:30.228Z,10.99
2022-10-22T12:49:39.867Z,11.20
2022-10-22T12:52:44.548Z,11.35
2022-10-22T12:55:49.900Z,11.21
2022-10-22T12:59:04.008Z,11.33
2022-10-22T13:02:27.154Z,11.36
2022-10-22T13:05:39.589Z,11.37
2022-10-22T13:08:42.058Z,11.35
2022-10-22T13:11:49.659Z,11.43
2022-10-22T13:14:51.829Z,11.47
2022-10-22T13:18:18.671Z,11.54
2022-10-22T13:21:28.725Z,11.41
2022-10-22T13:24:31.298Z,11.50
2022-10-22T13:27:33.624Z,11.45
2022-10-22T13:30:37.217Z,11.36
2022-10-22T13:33:44.369Z,11.34
2022-10-22T13:36:47.097Z,11.38
2022-10-22T13:39:49.845Z,11.47
2022-10-22T13:42:51.667Z,11.56
2022-10-22T13:45:56.808Z,11.55
2022-10-22T13:49:00.141Z,11.49
2022-10-22T13:52:02.984Z,11.49
2022-10-22T13:55:20.626Z,11.44
2022-10-22T13:58:25.993Z,11.45
2022-10-22T14:01:28.307Z,11.46
2022-10-22T14:04:30.437Z,11.48
2022-10-22T14:07:32.859Z,11.39
2022-10-22T14:10:34.715Z,11.28
2022-10-22T14:13:37.137Z,11.35
2022-10-22T14:16:39.236Z,11.39
2022-10-22T14:19:41.030Z,11.46
2022-10-22T14:22:43.491Z,11.49
2022-10-22T14:25:45.822Z,11.60
2022-10-22T14:29:08.702Z,11.47
2022-10-22T14:32:17.748Z,11.53
2022-10-22T14:35:22.700Z,11.56
2022-10-22T14:38:24.731Z,11.56
2022-10-22T14:41:29.016Z,11.62
2022-10-22T14:44:30.987Z,11.59
2022-10-22T14:47:33.761Z,11.53
2022-10-22T14:50:35.985Z,11.53
2022-10-22T14:53:38.842Z,11.51
2022-10-22T14:56:41.464Z,11.54
2022-10-22T14:59:43.385Z,11.50
2022-10-22T15:02:46.038Z,11.54
2022-10-22T15:05:54.300Z,11.45
2022-10-22T15:08:57.332Z,11.37
2022-10-22T15:11:59.535Z,11.42
2022-10-22T15:15:02.275Z,11.41
2022-10-22T15:18:04.736Z,11.39
2022-10-22T15:21:12.049Z,11.32
2022-10-22T15:24:13.938Z,11.17
2022-10-22T15:27:17.118Z,11.01
2022-10-22T15:30:19.177Z,11.02
2022-10-22T15:33:22.051Z,10.85
2022-10-22T15:36:24.164Z,10.61
2022-10-22T15:39:28.152Z,10.61
2022-10-22T15:42:30.733Z,10.61
2022-10-22T15:45:33.001Z,10.63
2022-10-22T15:48:36.104Z,10.60
2022-10-22T15:51:38.664Z,10.69
2022-10-22T15:54:43.107Z,10.72
2022-10-22T15:57:45.898Z,10.59
2022-10-22T16:00:48.927Z,10.52
2022-10-22T16:04:01.268Z,10.55
2022-10-22T16:07:03.255Z,10.49
2022-10-22T16:10:08.851Z,10.38
2022-10-22T16:13:11.211Z,10.33
2022-10-22T16:16:13.103Z,10.39
2022-10-22T16:19:17.905Z,10.27
2022-10-22T16:22:20.272Z,10.29
2022-10-22T16:25:23.048Z,10.27
2022-10-22T16:28:25.169Z,10.36
2022-10-22T16:31:27.988Z,10.28
2022-10-22T16:34:30.511Z,10.31
2022-10-22T16:37:32.498Z,10.37
2022-10-22T16:40:35.545Z,10.29
2022-10-22T16:43:38.495Z,10.25
2022-10-22T16:46:40.760Z,10.14
2022-10-22T16:49:44.053Z,10.03
2022-10-22T16:52:46.126Z,9.80
2022-10-22T16:55:49.005Z,9.61
2022-10-22T16:58:53.820Z,9.66
2022-10-22T17:01:56.404Z,9.67
2022-10-22T17:04:59.001Z,9.66
2022-10-22T17:08:01.425Z,9.59
2022-10-22T17:11:08.515Z,9.56
2022-10-22T17:14:11.049Z,9.73
2022-10-22T17:17:13.585Z,9.72
2022-10-22T17:20:15.684Z,9.80
2022-10-22T17:23:18.130Z,9.89
2022-10-22T17:26:22.403Z,10.00
2022-10-22T17:29:25.437Z,10.13
2022-10-22T17:32:27.704Z,10.08
2022-10-22T17:35:35.264Z,10.21
2022-10-22T17:38:38.955Z,10.30
2022-10-22T17:41:41.635Z,10.26
2022-10-22T17:44:43.728Z,10.25
2022-10-22T17:47:46.241Z,10.29
2022-10-22T17:50:51.007Z,10.19
2022-10-22T17:53:55.322Z,10.26
2022-10-22T17:56:57.563Z,10.31
2022-10-22T18:00:00.511Z,10.39
2022-10-22T18:03:02.591Z,10.36
2022-10-22T18:06:10.082Z,10.36
2022-10-22T18:09:18.302Z,10.39
2022-10-22T18:12:22.037Z,10.41
2022-10-22T18:15:24.686Z,10.51
2022-10-22T18:18:29.722Z,10.53
2022-10-22T18:21:31.799Z,10.58
2022-10-22T18:24:36.233Z,10.60
2022-10-22T18:27:39.264Z,10.60
2022-10-22T18:30:42.391Z,10.58
2022-10-22T18:33:44.937Z,10.59
2022-10-22T18:36:46.873Z,10.48
2022-10-22T18:39:50.105Z,10.40
2022-10-22T18:42:52.290Z,10.54
2022-10-22T18:45:55.185Z,10.57
2022-10-22T18:48:58.650Z,10.61
2022-10-22T18:52:01.797Z,10.64
2022-10-22T18:55:04.311Z,10.60
2022-10-22T18:58:07.267Z,10.60
2022-10-22T19:01:15.140Z,10.60
2022-10-22T19:04:18.480Z,10.62
2022-10-22T19:07:20.517Z,10.62
2022-10-22T19:10:22.450Z,10.69
2022-10-22T19:13:25.934Z,10.73
2022-10-22T19:16:28.792Z,10.70
2022-10-22T19:19:31.741Z,10.80
2022-10-22T19:22:34.493Z,10.81
2022-10-22T19:25:37.893Z,10.82
2022-10-22T19:28:40.824Z,10.86
2022-10-22T19:31:48.221Z,10.93
2022-10-22T19:34:51.178Z,10.89
2022-10-22T19:37:54.016Z,10.85
2022-10-22T19:40:56.431Z,10.92
2022-10-22T19:44:00.169Z,10.93
2022-10-22T19:47:02.064Z,10.90
2022-10-22T19:50:04.696Z,10.83
2022-10-22T19:53:07.845Z,10.81
2022-10-22T19:56:11.540Z,10.85
2022-10-22T19:59:16.108Z,10.85
2022-10-22T20:02:18.749Z,10.88
2022-10-22T20:08:25.981Z,10.91
2022-10-22T20:11:29.932Z,10.82
2022-10-22T20:14:32.423Z,10.81
2022-10-22T20:17:34.547Z,10.78
2022-10-22T20:20:39.981Z,10.82
2022-10-22T20:23:43.229Z,10.87
2022-10-22T20:26:47.278Z,10.93
2022-10-22T20:29:50.715Z,10.93
2022-10-22T20:32:53.370Z,10.90
2022-10-22T20:36:04.347Z,10.89
2022-10-22T20:39:08.989Z,10.92
2022-10-22T20:42:11.516Z,10.92
2022-10-22T20:45:13.696Z,10.82
2022-10-22T20:48:15.632Z,10.94
2022-10-22T20:51:17.663Z,10.93
2022-10-22T20:54:20.268Z,10.88
2022-10-22T20:57:23.058Z,10.83
2022-10-22T21:00:25.141Z,10.87
2022-10-22T21:03:27.143Z,10.91
2022-10-22T21:06:30.143Z,10.97
2022-10-22T21:09:34.362Z,10.95
2022-10-22T21:12:42.034Z,10.92
2022-10-22T21:15:44.588Z,10.94
2022-10-22T21:18:47.164Z,10.95
2022-10-22T21:21:49.808Z,10.91
2022-10-22T21:24:52.355Z,10.89
2022-10-22T21:27:56.668Z,10.84
2022-10-22T21:30:58.646Z,10.90
2022-10-22T21:34:00.528Z,10.92
2022-10-22T21:37:02.432Z,10.93
2022-10-22T21:40:05.250Z,10.91
2022-10-22T21:43:07.135Z,10.93
2022-10-22T21:46:12.499Z,10.88
2022-10-22T21:49:14.479Z,10.86
2022-10-22T21:52:17.049Z,10.87
2022-10-22T21:55:19.280Z,10.85
2022-10-22T21:58:21.010Z,10.83
2022-10-22T22:01:24.112Z,10.76
2022-10-22T22:04:26.735Z,10.77
2022-10-22T22:07:29.128Z,10.79
2022-10-22T22:10:31.283Z,10.84
2022-10-22T22:13:33.254Z,10.78
2022-10-22T22:16:36.074Z,10.78
2022-10-22T22:19:41.183Z,10.74
2022-10-22T22:22:43.733Z,10.72
2022-10-22T22:25:46.143Z,10.74
2022-10-22T22:28:48.914Z,10.76
2022-10-22T22:31:50.763Z,10.78
2022-10-22T22:34:52.564Z,10.76
2022-10-22T22:37:55.443Z,10.83
2022-10-22T22:40:59.600Z,10.91
2022-10-22T22:44:02.186Z,10.90
2022-10-22T22:47:05.212Z,10.93
2022-10-22T22:50:07.586Z,10.90
2022-10-22T22:53:09.847Z,10.79
2022-10-22T22:56:18.499Z,10.65
2022-10-22T22:59:20.600Z,10.35
2022-10-22T23:02:22.406Z,10.19
2022-10-22T23:05:25.305Z,10.08
2022-10-22T23:08:27.080Z,10.09
2022-10-22T23:11:29.790Z,10.13
2022-10-22T23:14:32.037Z,10.13
2022-10-22T23:17:33.712Z,10.07
2022-10-22T23:20:38.033Z,10.17
2022-10-22T23:23:43.552Z,10.09
2022-10-22T23:26:47.699Z,10.17
2022-10-22T23:29:49.358Z,10.25
2022-10-22T23:32:51.753Z,10.05
2022-10-22T23:35:53.786Z,10.11
2022-10-22T23:38:55.997Z,10.17
2022-10-22T23:41:58.500Z,10.08
2022-10-22T23:45:00.437Z,10.17
2022-10-22T23:48:03.346Z,10.09
2022-10-22T23:51:09.793Z,10.05
2022-10-22T23:54:14.377Z,10.04
2022-10-22T23:57:16.252Z,10.06
